Time;durP1;ratioP1;P1;durP2;ratioP2;P2;SDS_P1;SDS_P2;PMS_P1;PMS_P2;Temp;Humidity;BMP_temperature;BMP_pressure;BME280_temperature;BME280_humidity;BME280_pressure;Samples;Min_cycle;Max_cycle;Signal;HPM_P1;HPM_P2
2021/06/11 00:00:31;;;;;;;19.47;11.33;;;17.00;95.00;;;;;;5033203;28;20957;-73
2021/06/11 00:02:57;;;;;;;19.43;10.80;;;16.90;95.20;;;;;;5033641;28;20450;-73
2021/06/11 00:05:23;;;;;;;19.13;10.87;;;16.90;95.20;;;;;;5034432;28;20419;-74
2021/06/11 00:07:49;;;;;;;17.57;10.87;;;16.90;95.30;;;;;;5034108;28;20188;-73
2021/06/11 00:10:17;;;;;;;16.80;10.70;;;16.90;95.20;;;;;;5034064;28;20418;-74
2021/06/11 00:12:43;;;;;;;17.20;10.60;;;17.00;95.20;;;;;;5033299;28;20540;-75
2021/06/11 00:15:10;;;;;;;17.43;10.03;;;16.90;95.00;;;;;;5033943;28;20474;-73
2021/06/11 00:17:36;;;;;;;17.37;10.93;;;16.90;95.00;;;;;;5033501;28;20209;-74
2021/06/11 00:20:05;;;;;;;18.10;10.93;;;16.90;95.10;;;;;;5034817;28;20492;-73
2021/06/11 00:22:32;;;;;;;20.37;12.20;;;16.90;95.40;;;;;;5034834;28;20455;-74
2021/06/11 00:24:57;;;;;;;18.90;11.20;;;17.00;95.60;;;;;;5037715;28;20414;-74
2021/06/11 00:27:23;;;;;;;20.10;12.17;;;17.00;95.50;;;;;;5041134;28;20542;-73
2021/06/11 00:29:49;;;;;;;19.10;11.50;;;17.00;95.50;;;;;;5047901;28;20891;-74
2021/06/11 00:32:15;;;;;;;18.10;10.83;;;17.00;95.50;;;;;;5048836;28;20192;-72
2021/06/11 00:34:40;;;;;;;18.17;11.00;;;17.10;95.50;;;;;;5041759;28;20281;-75
2021/06/11 00:37:07;;;;;;;18.63;11.23;;;17.10;95.40;;;;;;5046854;28;20212;-73
2021/06/11 00:39:33;;;;;;;17.23;10.70;;;17.10;95.20;;;;;;5053714;28;20184;-74
2021/06/11 00:42:01;;;;;;;19.90;11.50;;;17.10;95.20;;;;;;5049445;28;20937;-74
2021/06/11 00:44:27;;;;;;;20.07;11.50;;;17.10;95.00;;;;;;5035250;28;21137;-76
2021/06/11 00:46:53;;;;;;;21.00;11.03;;;17.10;95.00;;;;;;5037050;28;20465;-74
2021/06/11 00:49:19;;;;;;;17.13;10.37;;;17.10;95.10;;;;;;5051915;28;20427;-73
2021/06/11 00:51:45;;;;;;;19.93;10.27;;;17.00;95.10;;;;;;5050074;28;20216;-74
2021/06/11 00:54:12;;;;;;;19.37;11.17;;;17.00;95.10;;;;;;5051046;28;20209;-74
2021/06/11 00:56:38;;;;;;;20.40;10.63;;;17.00;94.70;;;;;;5051422;28;20479;-74
2021/06/11 00:59:04;;;;;;;18.63;10.73;;;17.00;94.90;;;;;;5050619;28;20453;-73
2021/06/11 01:01:29;;;;;;;17.87;11.30;;;17.00;95.00;;;;;;5050926;28;20428;-74
2021/06/11 01:03:55;;;;;;;21.33;11.00;;;17.00;95.00;;;;;;5050935;28;20279;-73
2021/06/11 01:06:21;;;;;;;20.33;11.20;;;17.00;94.90;;;;;;5049893;28;20322;-74
2021/06/11 01:08:48;;;;;;;18.97;10.50;;;17.00;94.80;;;;;;5049749;28;20176;-73
2021/06/11 01:11:15;;;;;;;16.43;10.47;;;16.90;94.40;;;;;;5046899;28;20442;-72
2021/06/11 01:13:41;;;;;;;14.93;9.87;;;16.80;94.70;;;;;;5034828;28;20494;-74
2021/06/11 01:16:07;;;;;;;18.47;11.23;;;16.80;94.90;;;;;;5031623;28;20450;-74
2021/06/11 01:18:33;;;;;;;24.00;10.87;;;16.70;95.00;;;;;;5044721;28;20456;-71
2021/06/11 01:20:59;;;;;;;19.30;10.97;;;16.70;94.90;;;;;;5040335;28;20659;-73
2021/06/11 01:24:02;;;;;;;20.10;12.07;;;16.60;95.00;;;;;;5036118;28;20221;-73
2021/06/11 01:26:37;;;;;;;20.90;11.73;;;16.60;95.20;;;;;;5033186;28;20422;-73
2021/06/11 01:29:08;;;;;;;18.37;11.43;;;16.50;95.50;;;;;;5033187;28;20538;-74
2021/06/11 01:31:38;;;;;;;19.60;11.63;;;16.40;95.70;;;;;;5032250;28;20415;-73
2021/06/11 01:34:13;;;;;;;22.53;11.93;;;16.40;95.80;;;;;;5032568;28;21107;-71
2021/06/11 01:37:14;;;;;;;17.80;10.60;;;16.40;95.80;;;;;;5032607;28;20870;-73
2021/06/11 01:39:40;;;;;;;19.23;10.97;;;16.50;95.70;;;;;;5026384;28;20435;-73
2021/06/11 01:42:08;;;;;;;17.10;10.77;;;16.40;95.80;;;;;;5032625;28;20460;-74
2021/06/11 01:44:37;;;;;;;19.73;11.27;;;16.40;95.90;;;;;;5033348;28;20436;-72
2021/06/11 01:47:05;;;;;;;21.50;11.20;;;16.30;96.00;;;;;;5034583;28;20570;-73
2021/06/11 01:49:32;;;;;;;19.80;11.13;;;16.30;96.10;;;;;;5036374;28;20421;-73
2021/06/11 01:52:00;;;;;;;19.57;10.57;;;16.30;96.20;;;;;;5033454;28;20424;-72
2021/06/11 01:54:27;;;;;;;22.37;11.60;;;16.30;96.10;;;;;;5033353;28;20462;-73
2021/06/11 01:56:54;;;;;;;17.20;11.30;;;16.30;96.10;;;;;;5031343;28;20470;-74
2021/06/11 01:59:20;;;;;;;22.50;12.27;;;16.30;96.20;;;;;;5032885;28;20424;-75
2021/06/11 02:01:47;;;;;;;21.20;11.97;;;16.40;96.20;;;;;;5034949;28;20434;-75
2021/06/11 02:04:13;;;;;;;19.10;10.57;;;16.40;96.00;;;;;;5035463;28;20898;-74
2021/06/11 02:06:41;;;;;;;24.03;12.70;;;16.40;95.80;;;;;;5036196;28;20451;-74
2021/06/11 02:09:08;;;;;;;20.30;11.87;;;16.50;95.50;;;;;;5036613;28;20922;-74
2021/06/11 02:11:36;;;;;;;19.23;11.23;;;16.50;95.30;;;;;;5033776;28;20438;-74
2021/06/11 02:14:03;;;;;;;22.10;12.37;;;16.40;95.40;;;;;;5033884;28;20541;-74
2021/06/11 02:16:31;;;;;;;22.73;12.37;;;16.40;95.60;;;;;;5032140;28;20535;-74
2021/06/11 02:19:03;;;;;;;21.00;12.53;;;16.30;95.50;;;;;;5026409;28;20420;-74
2021/06/11 02:21:30;;;;;;;23.00;12.10;;;16.20;95.80;;;;;;5031960;28;20919;-73
2021/06/11 02:23:57;;;;;;;19.83;12.20;;;16.10;96.10;;;;;;5031659;28;20456;-74
2021/06/11 02:26:24;;;;;;;24.40;13.47;;;16.10;96.20;;;;;;5030897;28;20453;-73
2021/06/11 02:28:51;;;;;;;23.17;12.00;;;16.10;96.20;;;;;;5031836;28;21001;-74
2021/06/11 02:31:17;;;;;;;21.33;12.37;;;16.20;96.10;;;;;;5031053;28;20503;-76
2021/06/11 02:33:43;;;;;;;25.10;13.00;;;16.10;96.20;;;;;;5030641;28;20494;-73
2021/06/11 02:36:09;;;;;;;20.07;12.00;;;16.10;96.20;;;;;;5031526;28;20944;-74
2021/06/11 02:38:35;;;;;;;21.60;12.20;;;16.10;96.30;;;;;;5031869;28;20265;-74
2021/06/11 02:41:02;;;;;;;19.97;11.53;;;16.10;96.40;;;;;;5030862;28;20509;-74
2021/06/11 02:43:30;;;;;;;19.20;11.47;;;16.10;96.40;;;;;;5031527;28;20220;-74
2021/06/11 02:46:08;;;;;;;20.03;11.50;;;16.10;96.40;;;;;;5027020;28;20446;-73
2021/06/11 02:48:52;;;;;;;22.90;11.13;;;16.20;96.30;;;;;;5031509;28;20461;-73
2021/06/11 02:51:37;;;;;;;18.03;10.90;;;16.20;96.30;;;;;;5031133;28;20457;-74
2021/06/11 02:54:07;;;;;;;17.90;11.43;;;16.30;96.10;;;;;;5024684;28;20478;-74
2021/06/11 02:56:54;;;;;;;22.03;12.20;;;16.30;95.90;;;;;;5032167;28;20469;-73
2021/06/11 02:59:32;;;;;;;21.73;12.50;;;16.20;96.00;;;;;;5033774;28;20414;-74
2021/06/11 03:02:06;;;;;;;19.77;12.43;;;16.20;96.20;;;;;;5031722;28;20439;-74
2021/06/11 03:04:33;;;;;;;20.07;11.30;;;16.20;96.10;;;;;;5031186;28;20519;-73
2021/06/11 03:07:04;;;;;;;16.73;10.80;;;16.20;96.10;;;;;;5031963;28;20420;-74
2021/06/11 03:09:33;;;;;;;16.97;10.60;;;16.20;96.10;;;;;;5029981;28;20439;-73
2021/06/11 03:12:04;;;;;;;21.10;11.03;;;16.30;95.90;;;;;;5029457;28;20536;-72
2021/06/11 03:14:31;;;;;;;19.73;11.13;;;16.30;95.80;;;;;;5031765;28;20442;-74
2021/06/11 03:17:01;;;;;;;20.40;11.90;;;16.20;95.70;;;;;;5027279;28;20509;-74
2021/06/11 03:19:32;;;;;;;18.63;11.00;;;16.20;95.90;;;;;;5031478;28;20426;-75
2021/06/11 03:22:02;;;;;;;15.90;9.90;;;16.30;95.80;;;;;;5030999;28;20431;-75
2021/06/11 03:24:33;;;;;;;17.40;11.00;;;16.20;95.80;;;;;;5032076;28;20455;-74
2021/06/11 03:27:06;;;;;;;24.10;13.00;;;16.20;95.80;;;;;;5032841;28;20389;-73
2021/06/11 03:30:04;;;;;;;23.90;13.27;;;16.20;95.80;;;;;;5030936;28;20931;-73
2021/06/11 03:32:33;;;;;;;26.10;13.10;;;16.10;95.90;;;;;;5026381;28;20498;-74
2021/06/11 03:35:04;;;;;;;20.27;12.73;;;16.00;96.40;;;;;;5032271;28;20438;-73
2021/06/11 03:37:31;;;;;;;20.47;11.77;;;16.00;96.50;;;;;;5032181;28;20529;-74
2021/06/11 03:40:01;;;;;;;22.97;12.57;;;16.00;96.70;;;;;;5024396;28;20455;-74
2021/06/11 03:42:29;;;;;;;22.03;12.40;;;16.00;96.90;;;;;;5029922;28;20456;-74
2021/06/11 03:44:58;;;;;;;20.73;11.70;;;16.00;96.80;;;;;;5032852;28;20418;-74
2021/06/11 03:47:30;;;;;;;18.83;11.80;;;16.10;96.50;;;;;;5032656;28;20771;-75
2021/06/11 03:49:59;;;;;;;19.03;11.57;;;16.10;96.30;;;;;;5032468;28;20462;-73
2021/06/11 03:52:30;;;;;;;19.80;12.13;;;16.10;96.20;;;;;;5021113;28;20473;-73
2021/06/11 03:55:02;;;;;;;19.33;10.63;;;16.20;96.10;;;;;;5034385;28;20409;-74
2021/06/11 03:57:29;;;;;;;15.80;10.53;;;16.20;96.00;;;;;;5033071;28;20462;-75
2021/06/11 03:59:56;;;;;;;20.43;11.77;;;16.30;95.80;;;;;;5029968;28;20412;-73
2021/06/11 04:02:22;;;;;;;22.10;12.90;;;16.20;95.80;;;;;;5036388;28;20946;-74
2021/06/11 04:04:48;;;;;;;24.33;11.63;;;16.20;95.60;;;;;;5037044;28;20441;-74
2021/06/11 04:07:23;;;;;;;23.07;12.30;;;16.20;95.60;;;;;;5039618;28;20252;-73
2021/06/11 04:10:03;;;;;;;23.67;13.10;;;16.20;95.40;;;;;;5036436;28;20411;-75
2021/06/11 04:12:52;;;;;;;22.17;12.10;;;16.10;95.40;;;;;;5039088;28;20420;-74
2021/06/11 04:15:19;;;;;;;21.43;12.87;;;16.20;95.60;;;;;;5034837;28;20478;-74
2021/06/11 04:17:52;;;;;;;24.20;12.13;;;16.20;95.70;;;;;;5031981;28;20467;-73
2021/06/11 04:20:26;;;;;;;24.63;12.77;;;16.20;95.60;;;;;;5033336;28;20435;-74
2021/06/11 04:22:54;;;;;;;23.90;12.40;;;16.30;95.40;;;;;;5030554;28;20472;-73
2021/06/11 04:25:21;;;;;;;24.30;12.77;;;16.30;95.20;;;;;;5031915;28;20906;-73
2021/06/11 04:27:50;;;;;;;19.60;12.20;;;16.20;95.20;;;;;;5030630;28;20420;-73
2021/06/11 04:30:16;;;;;;;24.93;14.47;;;16.30;95.20;;;;;;5033325;28;20465;-74
2021/06/11 04:32:42;;;;;;;22.50;12.90;;;16.20;95.40;;;;;;5034265;28;20622;-73
2021/06/11 04:35:09;;;;;;;20.47;11.57;;;16.10;95.50;;;;;;5033346;28;20426;-74
2021/06/11 04:37:38;;;;;;;22.87;11.93;;;16.10;95.70;;;;;;5030734;28;20976;-74
2021/06/11 04:40:06;;;;;;;26.40;14.17;;;16.00;95.80;;;;;;5033225;28;20423;-73
2021/06/11 04:42:33;;;;;;;23.27;12.60;;;16.10;95.70;;;;;;5035295;28;20796;-74
2021/06/11 04:45:00;;;;;;;22.30;12.53;;;16.00;95.50;;;;;;5036697;28;20412;-73
2021/06/11 04:47:27;;;;;;;25.23;13.70;;;16.00;95.80;;;;;;5034476;28;20424;-73
2021/06/11 04:49:54;;;;;;;26.17;14.20;;;16.10;95.80;;;;;;5033545;28;20423;-72
2021/06/11 04:52:20;;;;;;;23.23;13.90;;;16.20;95.70;;;;;;5037239;28;20454;-73
2021/06/11 04:54:46;;;;;;;24.93;13.17;;;16.30;95.60;;;;;;5039416;28;20436;-72
2021/06/11 04:57:11;;;;;;;22.90;13.83;;;16.40;95.50;;;;;;5039896;28;20482;-73
2021/06/11 04:59:37;;;;;;;19.63;11.80;;;16.50;95.00;;;;;;5038481;28;20173;-73
2021/06/11 05:02:03;;;;;;;20.83;11.77;;;16.60;95.00;;;;;;5048863;28;20179;-74
2021/06/11 05:04:29;;;;;;;19.20;11.47;;;16.70;94.90;;;;;;5046909;28;20201;-74
2021/06/11 05:06:55;;;;;;;19.30;11.17;;;16.90;94.60;;;;;;5034966;28;20421;-74
2021/06/11 05:09:21;;;;;;;18.20;11.50;;;17.00;94.20;;;;;;5035186;28;20178;-73
2021/06/11 05:11:48;;;;;;;22.53;12.00;;;17.20;93.40;;;;;;5033617;28;20180;-74
2021/06/11 05:14:14;;;;;;;21.93;12.77;;;17.20;93.20;;;;;;5034683;28;20442;-73
2021/06/11 05:16:40;;;;;;;25.53;12.70;;;17.20;92.90;;;;;;5034734;28;20472;-75
2021/06/11 05:19:05;;;;;;;22.50;13.10;;;17.20;92.70;;;;;;5034090;28;20419;-73
2021/06/11 05:21:32;;;;;;;23.17;13.60;;;17.10;92.60;;;;;;5034124;28;20169;-74
2021/06/11 05:23:57;;;;;;;22.93;13.83;;;17.00;93.10;;;;;;5033887;28;20217;-73
2021/06/11 05:26:24;;;;;;;22.87;12.00;;;17.00;93.00;;;;;;5035061;28;20906;-76
2021/06/11 05:28:50;;;;;;;25.20;13.13;;;17.10;93.10;;;;;;5034514;28;20295;-74
2021/06/11 05:31:15;;;;;;;20.40;12.93;;;17.20;92.90;;;;;;5034251;28;20924;-74
2021/06/11 05:33:41;;;;;;;23.73;13.67;;;17.20;92.80;;;;;;5034182;28;20436;-74
2021/06/11 05:36:07;;;;;;;22.40;13.60;;;17.30;92.70;;;;;;5034837;28;20676;-74
2021/06/11 05:38:33;;;;;;;24.20;12.90;;;17.40;92.30;;;;;;5034616;28;20204;-73
2021/06/11 05:41:01;;;;;;;21.03;11.73;;;17.50;92.10;;;;;;5034042;28;20220;-73
2021/06/11 05:43:27;;;;;;;21.17;11.97;;;17.60;92.00;;;;;;5034271;28;20264;-73
2021/06/11 05:45:53;;;;;;;17.73;11.90;;;17.70;92.00;;;;;;5034256;28;20507;-73
2021/06/11 05:48:19;;;;;;;21.37;12.73;;;17.80;92.00;;;;;;5033208;28;20214;-74
2021/06/11 05:50:44;;;;;;;17.90;11.57;;;17.90;91.60;;;;;;5029128;28;20231;-75
2021/06/11 05:53:10;;;;;;;22.27;12.57;;;18.00;91.00;;;;;;5033622;28;20547;-72
2021/06/11 05:55:36;;;;;;;21.60;12.40;;;18.10;90.70;;;;;;5023942;28;20560;-73
2021/06/11 05:58:02;;;;;;;23.83;12.73;;;18.20;90.40;;;;;;5033761;28;20300;-74
2021/06/11 06:00:28;;;;;;;18.23;12.30;;;18.30;90.20;;;;;;5028445;28;20497;-73
2021/06/11 06:02:53;;;;;;;21.27;13.00;;;18.30;89.90;;;;;;5033856;28;20195;-73
2021/06/11 06:05:19;;;;;;;22.47;14.50;;;18.40;89.60;;;;;;5035204;28;20784;-74
2021/06/11 06:07:45;;;;;;;24.23;13.23;;;18.40;89.30;;;;;;5034046;28;20207;-74
2021/06/11 06:10:11;;;;;;;25.20;12.67;;;18.30;89.60;;;;;;5034463;28;20209;-73
2021/06/11 06:12:37;;;;;;;22.50;13.67;;;18.40;89.70;;;;;;5034972;28;20188;-73
2021/06/11 06:15:04;;;;;;;20.47;12.03;;;18.40;89.60;;;;;;5032932;28;20438;-73
2021/06/11 06:17:34;;;;;;;24.33;14.20;;;18.40;89.30;;;;;;5032098;28;20459;-75
2021/06/11 06:20:05;;;;;;;21.60;12.70;;;18.40;89.30;;;;;;5032809;28;20413;-74
2021/06/11 06:22:31;;;;;;;26.10;13.30;;;18.40;89.50;;;;;;5031437;28;20434;-74
2021/06/11 06:24:56;;;;;;;24.07;13.00;;;18.50;89.00;;;;;;5032039;28;20433;-72
2021/06/11 06:27:22;;;;;;;22.53;11.93;;;18.60;88.30;;;;;;5029342;28;20214;-71
2021/06/11 06:29:48;;;;;;;21.60;12.20;;;18.70;88.00;;;;;;5029473;28;20191;-72
2021/06/11 06:32:14;;;;;;;17.80;11.87;;;18.90;87.40;;;;;;5029606;28;20558;-74
2021/06/11 06:34:39;;;;;;;20.10;12.33;;;19.00;87.10;;;;;;5029242;28;20634;-73
2021/06/11 06:37:06;;;;;;;16.47;10.93;;;19.20;87.00;;;;;;5030231;28;20580;-72
2021/06/11 06:39:32;;;;;;;21.07;12.10;;;19.30;86.00;;;;;;5030289;28;20607;-74
2021/06/11 06:41:58;;;;;;;20.30;11.90;;;19.40;85.70;;;;;;5029888;28;20515;-73
2021/06/11 06:44:24;;;;;;;20.53;12.70;;;19.40;85.90;;;;;;5030676;28;20307;-73
2021/06/11 06:46:50;;;;;;;21.63;12.30;;;19.50;86.00;;;;;;5030258;28;20425;-73
2021/06/11 06:49:15;;;;;;;24.87;12.23;;;19.70;85.70;;;;;;5034357;28;20652;-75
2021/06/11 06:51:41;;;;;;;19.93;12.17;;;19.70;84.70;;;;;;5032770;28;20240;-74
2021/06/11 06:54:07;;;;;;;20.83;12.87;;;19.80;83.70;;;;;;5030218;28;20259;-75
2021/06/11 06:56:33;;;;;;;18.30;11.30;;;19.80;83.40;;;;;;5029826;28;20208;-74
2021/06/11 06:58:59;;;;;;;20.70;11.90;;;19.90;83.30;;;;;;5030417;28;20276;-75
2021/06/11 07:01:26;;;;;;;21.20;11.30;;;20.10;82.70;;;;;;5029541;28;20264;-75
2021/06/11 07:03:59;;;;;;;21.67;12.50;;;20.20;82.20;;;;;;5028897;28;20444;-73
2021/06/11 07:06:26;;;;;;;19.07;12.57;;;20.30;81.40;;;;;;5031037;28;20804;-74
2021/06/11 07:08:52;;;;;;;20.27;12.60;;;20.30;81.80;;;;;;5031596;28;20420;-76
2021/06/11 07:11:19;;;;;;;21.33;12.80;;;20.40;81.90;;;;;;5031584;28;20915;-75
2021/06/11 07:13:45;;;;;;;22.57;13.80;;;20.50;80.80;;;;;;5031094;28;20428;-74
2021/06/11 07:16:11;;;;;;;18.87;13.00;;;20.60;80.50;;;;;;5030955;28;20800;-74
2021/06/11 07:18:38;;;;;;;20.87;13.27;;;20.70;80.50;;;;;;5029717;28;20542;-74
2021/06/11 07:21:05;;;;;;;21.70;13.70;;;20.70;79.60;;;;;;5030657;28;20421;-74
2021/06/11 07:23:33;;;;;;;23.43;13.03;;;20.80;79.20;;;;;;5031009;28;20463;-74
2021/06/11 07:26:02;;;;;;;24.87;13.80;;;20.80;79.20;;;;;;5027799;28;20845;-75
2021/06/11 07:28:28;;;;;;;18.33;13.20;;;20.90;79.00;;;;;;5031762;28;20435;-74
2021/06/11 07:30:55;;;;;;;19.53;12.60;;;21.00;79.00;;;;;;5029708;28;20425;-75
2021/06/11 07:33:21;;;;;;;22.07;12.40;;;21.10;79.30;;;;;;5031380;28;20440;-75
2021/06/11 07:35:47;;;;;;;17.60;12.53;;;21.20;79.20;;;;;;5031836;28;20432;-76
2021/06/11 07:38:12;;;;;;;23.03;13.93;;;21.30;78.70;;;;;;5030119;28;20464;-74
2021/06/11 07:40:38;;;;;;;20.03;12.77;;;21.40;78.00;;;;;;5033656;28;20656;-73
2021/06/11 07:43:04;;;;;;;21.13;13.10;;;21.40;78.30;;;;;;5035327;28;20857;-74
2021/06/11 07:45:31;;;;;;;21.73;12.60;;;21.40;78.30;;;;;;5040058;28;20217;-76
2021/06/11 07:47:56;;;;;;;18.13;11.87;;;21.40;79.00;;;;;;5032780;28;20861;-75
2021/06/11 07:50:22;;;;;;;22.83;13.27;;;21.50;78.90;;;;;;5034807;28;20449;-77
2021/06/11 07:52:48;;;;;;;21.90;12.63;;;21.60;78.40;;;;;;5034816;28;20205;-74
2021/06/11 07:55:15;;;;;;;21.23;12.30;;;21.70;77.80;;;;;;5035880;28;20439;-76
2021/06/11 07:57:41;;;;;;;19.00;11.63;;;21.70;78.00;;;;;;5040297;28;20469;-75
2021/06/11 08:00:08;;;;;;;25.83;12.97;;;21.70;77.10;;;;;;5040818;28;20463;-75
2021/06/11 08:02:34;;;;;;;19.43;12.30;;;21.60;76.80;;;;;;5039672;28;20413;-74
2021/06/11 08:05:00;;;;;;;18.33;13.00;;;21.60;76.70;;;;;;5037274;28;20756;-74
2021/06/11 08:07:30;;;;;;;19.23;12.20;;;21.70;75.80;;;;;;5034658;28;20181;-75
2021/06/11 08:09:58;;;;;;;19.20;12.33;;;21.90;75.10;;;;;;5030817;28;20584;-76
2021/06/11 08:12:26;;;;;;;20.67;12.00;;;21.90;75.70;;;;;;5032154;28;20417;-75
2021/06/11 08:14:52;;;;;;;21.03;11.67;;;22.10;76.80;;;;;;5036101;28;20472;-74
2021/06/11 08:17:18;;;;;;;24.90;14.03;;;22.10;75.20;;;;;;5035418;28;20873;-74
2021/06/11 08:19:44;;;;;;;32.00;13.23;;;21.90;75.20;;;;;;5035480;28;20431;-74
2021/06/11 08:22:09;;;;;;;25.27;13.87;;;21.80;76.10;;;;;;5034576;28;20421;-74
2021/06/11 08:24:35;;;;;;;19.50;12.17;;;21.80;75.80;;;;;;5033434;28;20217;-74
2021/06/11 08:27:01;;;;;;;18.77;11.83;;;22.00;75.50;;;;;;5035159;28;20194;-75
2021/06/11 08:29:27;;;;;;;19.50;12.40;;;22.20;75.10;;;;;;5031933;28;20238;-75
2021/06/11 08:31:53;;;;;;;21.77;12.73;;;22.30;74.80;;;;;;5032997;28;20189;-74
2021/06/11 08:34:19;;;;;;;20.17;11.93;;;22.40;73.90;;;;;;5035264;28;20282;-75
2021/06/11 08:36:46;;;;;;;20.83;12.70;;;22.50;73.70;;;;;;5034731;28;20477;-75
2021/06/11 08:39:12;;;;;;;21.93;12.77;;;22.60;73.70;;;;;;5035131;28;20418;-75
2021/06/11 08:41:38;;;;;;;17.03;12.13;;;22.50;73.20;;;;;;5034767;28;20411;-74
2021/06/11 08:44:06;;;;;;;19.83;12.70;;;22.50;72.60;;;;;;5033621;28;20683;-75
2021/06/11 08:46:32;;;;;;;20.57;12.80;;;22.40;72.30;;;;;;5033333;28;20477;-75
2021/06/11 08:49:01;;;;;;;18.77;12.27;;;22.40;73.20;;;;;;5034967;28;20799;-76
2021/06/11 08:51:28;;;;;;;22.00;13.47;;;22.50;73.00;;;;;;5029663;28;20457;-75
2021/06/11 08:53:54;;;;;;;16.30;10.93;;;22.60;72.30;;;;;;5034962;28;20759;-75
2021/06/11 08:56:20;;;;;;;16.20;10.83;;;22.70;72.00;;;;;;5034501;28;20421;-74
2021/06/11 08:58:48;;;;;;;22.17;13.17;;;22.90;71.70;;;;;;5035118;28;20917;-76
2021/06/11 09:01:14;;;;;;;17.60;11.70;;;23.00;70.70;;;;;;5033535;28;20422;-74
2021/06/11 09:03:44;;;;;;;17.87;11.77;;;22.90;70.40;;;;;;5034667;28;20465;-74
2021/06/11 09:06:14;;;;;;;17.17;11.60;;;23.00;70.40;;;;;;5033190;28;20655;-75
2021/06/11 09:08:48;;;;;;;18.20;10.70;;;23.10;69.80;;;;;;5034512;28;20506;-75
2021/06/11 09:11:19;;;;;;;18.50;12.30;;;23.30;69.40;;;;;;5034475;28;20431;-74
2021/06/11 09:13:48;;;;;;;15.40;10.43;;;23.30;68.00;;;;;;5032929;28;20447;-75
2021/06/11 09:16:24;;;;;;;22.00;12.97;;;23.30;68.00;;;;;;5033609;28;20463;-74
2021/06/11 09:18:58;;;;;;;15.70;9.80;;;23.50;67.50;;;;;;5033908;28;20422;-77
2021/06/11 09:21:35;;;;;;;17.20;11.33;;;23.70;67.20;;;;;;5034165;28;20838;-76
2021/06/11 09:24:27;;;;;;;14.83;11.00;;;23.80;66.30;;;;;;5033911;28;20469;-74
2021/06/11 09:27:06;;;;;;;17.67;11.83;;;23.90;66.40;;;;;;5033769;28;20853;-75
2021/06/11 09:29:44;;;;;;;17.13;11.30;;;24.10;65.70;;;;;;5033161;28;20958;-76
2021/06/11 09:32:26;;;;;;;20.30;12.07;;;24.20;66.00;;;;;;5025944;28;20440;-76
2021/06/11 09:34:57;;;;;;;17.13;10.97;;;24.30;65.70;;;;;;5034257;28;20504;-74
2021/06/11 09:37:30;;;;;;;17.67;11.40;;;24.40;65.10;;;;;;5032759;28;20800;-75
2021/06/11 09:40:04;;;;;;;18.50;12.73;;;24.50;63.70;;;;;;5033205;28;20432;-74
2021/06/11 09:42:34;;;;;;;18.77;12.97;;;24.50;63.40;;;;;;5032524;28;20540;-74
2021/06/11 09:45:12;;;;;;;20.40;12.70;;;24.40;63.90;;;;;;5033341;28;20514;-75
2021/06/11 09:47:44;;;;;;;16.43;12.23;;;24.40;62.80;;;;;;5028796;28;20433;-73
2021/06/11 09:50:22;;;;;;;18.47;12.93;;;24.50;62.90;;;;;;5032983;28;20400;-75
2021/06/11 09:53:05;;;;;;;19.83;13.00;;;24.50;61.50;;;;;;5032779;28;20415;-76
2021/06/11 09:55:48;;;;;;;18.37;12.37;;;24.70;60.10;;;;;;5032939;28;20416;-74
2021/06/11 09:58:17;;;;;;;19.60;13.57;;;24.80;59.10;;;;;;5039530;28;20452;-74
2021/06/11 10:00:46;;;;;;;21.23;13.67;;;24.80;58.70;;;;;;5038096;28;20424;-75
2021/06/11 10:03:15;;;;;;;15.27;12.10;;;25.00;58.00;;;;;;5032998;28;20440;-75
2021/06/11 10:05:43;;;;;;;16.90;12.27;;;25.10;57.40;;;;;;5039552;28;20428;-73
2021/06/11 10:08:09;;;;;;;17.90;13.53;;;25.40;57.30;;;;;;5039145;28;20427;-73
2021/06/11 10:10:36;;;;;;;18.23;12.60;;;25.40;56.10;;;;;;5035615;28;20429;-74
2021/06/11 10:13:02;;;;;;;19.30;14.47;;;25.60;57.00;;;;;;5030689;28;20445;-76
2021/06/11 10:15:31;;;;;;;18.40;13.40;;;25.70;55.80;;;;;;5033623;28;21006;-74
2021/06/11 10:17:57;;;;;;;18.10;13.23;;;25.60;55.20;;;;;;5033514;28;20831;-74
2021/06/11 10:20:23;;;;;;;14.93;11.90;;;26.00;55.30;;;;;;5036674;28;20462;-74
2021/06/11 10:22:50;;;;;;;28.90;12.60;;;26.50;55.30;;;;;;5036644;28;20461;-74
2021/06/11 10:25:15;;;;;;;16.93;12.40;;;27.10;52.60;;;;;;5034483;28;20193;-75
2021/06/11 10:27:43;;;;;;;18.60;14.20;;;27.50;50.70;;;;;;5031910;28;20442;-73
2021/06/11 10:30:10;;;;;;;17.30;12.53;;;27.40;49.70;;;;;;5031832;28;20195;-75
2021/06/11 10:32:40;;;;;;;16.53;13.33;;;27.40;50.50;;;;;;5027932;28;20424;-73
2021/06/11 10:35:08;;;;;;;17.30;13.03;;;27.50;50.10;;;;;;5025265;28;20426;-75
2021/06/11 10:37:39;;;;;;;20.10;13.37;;;27.50;50.30;;;;;;5031394;28;20836;-73
2021/06/11 10:40:32;;;;;;;18.53;14.30;;;27.70;49.40;;;;;;5030576;28;20428;-74
2021/06/11 10:43:20;;;;;;;19.80;14.33;;;27.80;48.60;;;;;;5031717;28;20522;-73
2021/06/11 10:45:46;;;;;;;17.63;13.07;;;27.20;48.90;;;;;;5032108;28;20431;-75
2021/06/11 10:48:12;;;;;;;17.80;13.07;;;27.20;49.50;;;;;;5032059;28;21463;-76
2021/06/11 10:50:39;;;;;;;17.17;14.17;;;27.20;48.50;;;;;;5031674;28;20593;-73
2021/06/11 10:53:33;;;;;;;15.50;11.70;;;27.10;48.50;;;;;;5032044;28;20478;-74
2021/06/11 10:56:19;;;;;;;20.50;12.90;;;27.20;48.30;;;;;;5031607;28;20940;-74
2021/06/11 10:58:46;;;;;;;14.97;12.10;;;27.50;47.50;;;;;;5031921;28;20969;-75
2021/06/11 11:01:25;;;;;;;17.20;13.67;;;27.80;47.50;;;;;;5020533;28;20420;-74
2021/06/11 11:03:51;;;;;;;14.77;11.83;;;27.60;47.50;;;;;;5027583;28;20480;-74
2021/06/11 11:06:32;;;;;;;17.53;12.27;;;27.40;47.80;;;;;;5031454;28;20967;-75
2021/06/11 11:09:02;;;;;;;17.03;13.60;;;27.60;47.80;;;;;;5023141;28;20426;-75
2021/06/11 11:11:33;;;;;;;16.57;12.90;;;27.60;47.40;;;;;;5029074;28;20933;-75
2021/06/11 11:14:00;;;;;;;17.03;12.47;;;27.50;48.20;;;;;;5029266;28;20805;-75
2021/06/11 11:16:27;;;;;;;17.70;11.90;;;27.90;47.70;;;;;;5031820;28;20420;-74
2021/06/11 11:18:54;;;;;;;15.90;12.67;;;28.30;47.10;;;;;;5030587;28;20427;-74
2021/06/11 11:21:31;;;;;;;15.90;12.80;;;28.70;46.20;;;;;;5034305;28;20508;-74
2021/06/11 11:23:59;;;;;;;14.70;12.07;;;28.30;46.10;;;;;;5039551;28;20467;-74
2021/06/11 11:26:48;;;;;;;16.33;12.10;;;28.10;45.90;;;;;;5042350;28;20442;-74
2021/06/11 11:29:16;;;;;;;20.33;11.80;;;28.50;45.50;;;;;;5049186;28;20416;-75
2021/06/11 11:31:44;;;;;;;18.50;12.10;;;28.70;45.80;;;;;;5054647;28;20428;-76
2021/06/11 11:34:10;;;;;;;17.03;13.47;;;28.90;44.90;;;;;;5040751;28;20501;-75
2021/06/11 11:36:37;;;;;;;15.93;13.10;;;28.40;45.80;;;;;;5044496;28;20431;-73
2021/06/11 11:39:11;;;;;;;18.33;13.33;;;28.10;46.70;;;;;;5041682;28;20572;-74
2021/06/11 11:41:37;;;;;;;15.27;12.13;;;27.60;48.70;;;;;;5039710;28;20446;-74
2021/06/11 11:44:04;;;;;;;19.10;13.90;;;27.60;49.30;;;;;;5035163;28;20446;-74
2021/06/11 11:46:30;;;;;;;19.90;14.90;;;26.90;50.90;;;;;;5031408;28;20421;-74
2021/06/11 11:48:56;;;;;;;15.70;12.47;;;26.60;52.20;;;;;;5031992;28;20414;-74
2021/06/11 11:51:22;;;;;;;18.00;13.80;;;26.60;52.80;;;;;;5035167;28;20441;-76
2021/06/11 11:53:48;;;;;;;19.20;13.43;;;26.70;52.00;;;;;;5034625;28;20199;-76
2021/06/11 11:56:14;;;;;;;16.43;12.43;;;27.10;51.60;;;;;;5034144;28;20242;-75
2021/06/11 11:58:40;;;;;;;15.63;12.97;;;27.10;50.10;;;;;;5034731;28;20843;-75
2021/06/11 12:01:05;;;;;;;14.40;11.33;;;27.50;49.70;;;;;;5035269;28;20435;-75
2021/06/11 12:03:31;;;;;;;18.47;13.60;;;27.90;47.70;;;;;;5034066;28;20208;-77
2021/06/11 12:05:57;;;;;;;16.80;13.67;;;28.20;48.10;;;;;;5026350;28;20247;-74
2021/06/11 12:08:23;;;;;;;18.70;11.67;;;28.10;47.00;;;;;;5032781;28;20193;-75
2021/06/11 12:10:48;;;;;;;16.17;13.20;;;28.10;47.50;;;;;;5034038;28;20196;-74
2021/06/11 12:13:14;;;;;;;18.37;12.37;;;28.20;46.50;;;;;;5034562;28;20207;-76
2021/06/11 12:15:40;;;;;;;19.23;11.67;;;27.90;46.90;;;;;;5034268;28;20188;-74
2021/06/11 12:18:06;;;;;;;16.27;11.83;;;28.00;46.60;;;;;;5034164;28;20203;-74
2021/06/11 12:20:33;;;;;;;16.80;11.47;;;28.10;45.30;;;;;;5038732;28;20196;-74
2021/06/11 12:23:03;;;;;;;14.80;11.47;;;28.30;45.00;;;;;;5034002;28;20466;-74
2021/06/11 12:25:29;;;;;;;12.33;9.50;;;28.30;42.80;;;;;;5034739;28;20427;-75
2021/06/11 12:27:55;;;;;;;14.67;11.83;;;28.60;39.90;;;;;;5034022;28;20917;-75
2021/06/11 12:30:21;;;;;;;14.60;11.13;;;29.10;42.40;;;;;;5034525;28;20424;-75
2021/06/11 12:32:47;;;;;;;14.50;11.67;;;28.50;44.30;;;;;;5033655;28;20740;-76
2021/06/11 12:35:14;;;;;;;16.27;12.43;;;28.20;45.50;;;;;;5033918;28;20515;-76